createdAt,value
2022-12-04T00:01:09.322Z,1.90
2022-12-04T00:03:37.108Z,1.90
2022-12-04T00:06:05.885Z,1.90
2022-12-04T00:08:33.783Z,1.90
2022-12-04T00:11:01.426Z,1.90
2022-12-04T00:13:27.966Z,1.90
2022-12-04T00:15:54.240Z,1.90
2022-12-04T00:18:20.783Z,2.00
2022-12-04T00:20:47.567Z,2.00
2022-12-04T00:23:13.879Z,2.00
2022-12-04T00:25:41.504Z,2.00
2022-12-04T00:28:09.301Z,2.00
2022-12-04T00:30:41.395Z,2.00
2022-12-04T00:33:08.705Z,2.00
2022-12-04T00:35:35.351Z,2.00
2022-12-04T00:38:03.787Z,2.00
2022-12-04T00:40:30.054Z,2.10
2022-12-04T00:42:56.614Z,2.00
2022-12-04T00:45:23.376Z,2.10
2022-12-04T00:47:50.421Z,2.10
2022-12-04T00:50:17.132Z,2.10
2022-12-04T00:52:43.678Z,2.10
2022-12-04T00:55:10.103Z,2.10
2022-12-04T00:57:36.635Z,2.10
2022-12-04T01:00:04.278Z,2.00
2022-12-04T01:02:30.846Z,2.00
2022-12-04T01:04:57.474Z,2.00
2022-12-04T01:07:24.033Z,2.00
2022-12-04T01:09:51.723Z,1.90
2022-12-04T01:12:20.938Z,1.80
2022-12-04T01:14:48.471Z,1.80
2022-12-04T01:17:14.881Z,1.80
2022-12-04T01:19:41.476Z,1.70
2022-12-04T01:22:07.704Z,1.80
2022-12-04T01:24:35.083Z,1.80
2022-12-04T01:27:01.589Z,1.80
2022-12-04T01:29:28.662Z,1.80
2022-12-04T01:31:55.504Z,1.80
2022-12-04T01:34:24.906Z,1.70
2022-12-04T01:36:52.289Z,1.70
2022-12-04T01:39:19.195Z,1.70
2022-12-04T01:41:47.165Z,1.70
2022-12-04T01:44:16.296Z,1.60
2022-12-04T01:46:49.196Z,1.60
2022-12-04T01:49:22.740Z,1.50
2022-12-04T01:52:09.044Z,1.40
2022-12-04T01:54:37.980Z,1.30
2022-12-04T01:57:18.675Z,1.20
2022-12-04T02:00:04.831Z,1.10
2022-12-04T02:02:34.296Z,1.00
2022-12-04T02:05:03.285Z,0.80
2022-12-04T02:07:30.136Z,0.70
2022-12-04T02:10:02.997Z,0.60
2022-12-04T02:12:36.577Z,0.50
2022-12-04T02:15:16.837Z,0.50
2022-12-04T02:17:59.178Z,0.40
2022-12-04T02:21:10.892Z,0.90
2022-12-04T02:25:53.906Z,0.30
2022-12-04T02:29:55.677Z,0.10
2022-12-04T02:33:47.283Z,0.00
2022-12-04T02:36:23.864Z,-0.20
2022-12-04T02:39:14.458Z,-0.30
2022-12-04T02:41:59.152Z,-0.30
2022-12-04T02:51:14.478Z,-0.20
2022-12-04T02:53:46.307Z,0.00
2022-12-04T02:56:15.968Z,-0.10
2022-12-04T02:58:46.599Z,-0.10
2022-12-04T03:01:21.271Z,-0.20
2022-12-04T03:04:11.150Z,-0.20
2022-12-04T03:06:39.947Z,-0.20
2022-12-04T03:09:16.111Z,-0.30
2022-12-04T03:11:45.191Z,-0.40
2022-12-04T03:14:25.571Z,-0.50
2022-12-04T03:16:55.592Z,-0.50
2022-12-04T03:19:24.781Z,-0.40
2022-12-04T03:22:06.898Z,-0.40
2022-12-04T03:24:38.212Z,-0.20
2022-12-04T03:28:07.911Z,-0.20
2022-12-04T03:30:41.687Z,0.00
2022-12-04T03:33:18.190Z,0.10
2022-12-04T03:35:48.934Z,0.20
2022-12-04T03:40:00.671Z,0.10
2022-12-04T03:42:39.446Z,-0.10
2022-12-04T03:45:21.852Z,-0.10
2022-12-04T03:48:15.833Z,-0.10
2022-12-04T03:51:01.051Z,-0.20
2022-12-04T03:53:54.041Z,-0.30
2022-12-04T03:56:22.743Z,-0.20
2022-12-04T03:58:53.461Z,-0.30
2022-12-04T04:01:22.836Z,-0.20
2022-12-04T04:03:51.578Z,-0.20
2022-12-04T04:06:28.558Z,-0.30
2022-12-04T04:08:56.481Z,-0.20
2022-12-04T04:11:28.595Z,-0.20
2022-12-04T04:14:24.063Z,-0.20
2022-12-04T04:17:14.277Z,-0.20
2022-12-04T04:19:59.553Z,0.30
2022-12-04T04:22:44.073Z,-0.20
2022-12-04T04:25:15.753Z,-0.10
2022-12-04T04:27:42.313Z,-1.60
2022-12-04T04:30:09.437Z,0.10
2022-12-04T04:33:17.966Z,0.30
2022-12-04T04:36:01.826Z,0.30
2022-12-04T04:38:34.079Z,0.30
2022-12-04T04:41:09.543Z,0.40
2022-12-04T04:43:43.219Z,0.40
2022-12-04T04:46:24.829Z,0.40
2022-12-04T04:48:52.281Z,0.40
2022-12-04T04:51:18.541Z,0.50
2022-12-04T04:53:50.656Z,0.60
2022-12-04T04:56:16.757Z,0.70
2022-12-04T04:58:42.911Z,0.70
2022-12-04T05:01:13.166Z,0.70
2022-12-04T05:03:40.066Z,0.70
2022-12-04T05:06:06.373Z,0.70
2022-12-04T05:08:33.352Z,0.70
2022-12-04T05:10:59.456Z,0.80
2022-12-04T05:13:27.955Z,0.90
2022-12-04T05:16:04.892Z,1.00
2022-12-04T05:18:31.265Z,1.10
2022-12-04T05:20:57.390Z,1.10
2022-12-04T05:23:23.715Z,1.20
2022-12-04T05:25:50.156Z,1.20
2022-12-04T05:28:16.267Z,1.20
2022-12-04T05:30:42.416Z,1.30
2022-12-04T05:33:09.885Z,1.30
2022-12-04T05:35:35.981Z,1.20
2022-12-04T05:38:03.240Z,1.10
2022-12-04T05:40:29.569Z,1.00
2022-12-04T05:42:56.592Z,1.10
2022-12-04T05:45:22.731Z,1.10
2022-12-04T05:47:49.266Z,1.20
2022-12-04T05:50:15.598Z,3.30
2022-12-04T05:52:41.732Z,1.20
2022-12-04T05:55:09.704Z,1.30
2022-12-04T05:57:35.816Z,1.20
2022-12-04T06:00:01.971Z,1.10
2022-12-04T06:02:28.143Z,1.10
2022-12-04T06:04:54.599Z,1.10
2022-12-04T06:07:20.726Z,1.00
2022-12-04T06:09:46.852Z,1.00
2022-12-04T06:12:13.806Z,0.90
2022-12-04T06:14:40.312Z,0.90
2022-12-04T06:17:06.553Z,0.80
2022-12-04T06:19:32.898Z,0.70
2022-12-04T06:21:59.014Z,0.70
2022-12-04T06:24:25.200Z,0.70
2022-12-04T06:27:27.311Z,0.60
2022-12-04T06:29:54.723Z,0.60
2022-12-04T06:32:22.550Z,0.60
2022-12-04T06:34:52.771Z,0.60
2022-12-04T06:37:19.899Z,0.60
2022-12-04T06:39:46.228Z,0.60
2022-12-04T06:42:13.708Z,0.60
2022-12-04T06:44:39.888Z,0.70
2022-12-04T06:47:07.142Z,3.10
2022-12-04T06:49:33.385Z,0.80
2022-12-04T06:51:59.557Z,0.90
2022-12-04T06:54:26.048Z,1.00
2022-12-04T06:56:52.161Z,1.10
2022-12-04T06:59:18.498Z,1.10
2022-12-04T07:01:44.831Z,1.30
2022-12-04T07:04:11.157Z,1.40
2022-12-04T07:06:38.320Z,1.50
2022-12-04T07:09:23.992Z,1.70
2022-12-04T07:11:50.098Z,1.80
2022-12-04T07:14:16.316Z,2.10
2022-12-04T07:16:42.789Z,2.20
2022-12-04T07:19:10.339Z,2.50
2022-12-04T07:21:36.445Z,2.70
2022-12-04T07:24:02.701Z,2.80
2022-12-04T07:26:29.422Z,2.90
2022-12-04T07:28:56.986Z,3.00
2022-12-04T07:31:23.950Z,3.20
2022-12-04T07:33:50.982Z,3.20
2022-12-04T07:36:18.927Z,3.30
2022-12-04T07:38:45.494Z,3.20
2022-12-04T07:41:12.188Z,3.20
2022-12-04T07:43:38.389Z,3.10
2022-12-04T07:46:12.744Z,3.10
2022-12-04T07:48:39.592Z,3.10
2022-12-04T07:51:10.456Z,3.10
2022-12-04T07:53:36.716Z,3.20
2022-12-04T07:56:04.131Z,3.30
2022-12-04T07:58:30.328Z,3.30
2022-12-04T08:01:14.773Z,3.40
2022-12-04T08:03:47.252Z,3.60
2022-12-04T08:06:15.568Z,3.70
2022-12-04T08:08:41.701Z,3.90
2022-12-04T08:11:09.959Z,3.90
2022-12-04T08:13:36.284Z,3.90
2022-12-04T08:16:04.136Z,3.80
2022-12-04T08:18:30.498Z,3.90
2022-12-04T08:21:05.123Z,3.90
2022-12-04T08:23:31.695Z,3.90
2022-12-04T08:25:59.877Z,4.00
2022-12-04T08:28:26.100Z,3.90
2022-12-04T08:30:52.519Z,3.90
2022-12-04T08:33:19.923Z,3.90
2022-12-04T08:35:46.096Z,3.90
2022-12-04T08:38:12.491Z,4.10
2022-12-04T08:40:39.225Z,4.20
2022-12-04T08:43:06.379Z,4.40
2022-12-04T08:45:32.625Z,4.70
2022-12-04T08:47:58.918Z,4.60
2022-12-04T08:50:25.118Z,4.60
2022-12-04T08:52:52.150Z,4.60
2022-12-04T08:55:18.931Z,4.60
2022-12-04T08:57:45.109Z,4.70
2022-12-04T09:00:12.648Z,4.70
2022-12-04T09:02:38.887Z,7.00
2022-12-04T09:05:05.502Z,5.00
2022-12-04T09:07:32.430Z,5.30
2022-12-04T09:10:00.488Z,5.70
2022-12-04T09:12:27.150Z,6.00
2022-12-04T09:14:53.895Z,6.40
2022-12-04T09:17:20.421Z,6.80
2022-12-04T09:19:47.339Z,6.70
2022-12-04T09:22:13.694Z,6.50
2022-12-04T09:24:41.114Z,6.50
2022-12-04T09:27:14.552Z,6.50
2022-12-04T09:29:42.969Z,6.90
2022-12-04T09:32:09.167Z,7.40
2022-12-04T09:34:37.007Z,7.70
2022-12-04T09:37:05.392Z,7.80
2022-12-04T09:39:32.954Z,7.80
2022-12-04T09:42:10.170Z,9.70
2022-12-04T09:44:40.781Z,8.30
2022-12-04T09:48:08.440Z,8.70
2022-12-04T09:50:41.237Z,8.30
2022-12-04T09:53:23.207Z,8.20
2022-12-04T09:56:23.936Z,8.20
2022-12-04T09:58:56.303Z,8.10
2022-12-04T10:02:47.649Z,8.10
2022-12-04T10:05:52.558Z,8.10
2022-12-04T10:08:38.123Z,8.20
2022-12-04T10:11:32.820Z,8.30
2022-12-04T10:14:30.717Z,8.20
2022-12-04T10:17:17.151Z,8.30
2022-12-04T10:21:24.770Z,8.20
2022-12-04T10:24:16.930Z,8.10
2022-12-04T10:26:47.757Z,8.20
2022-12-04T10:29:24.345Z,8.10
2022-12-04T10:31:53.812Z,8.30
2022-12-04T10:34:27.281Z,8.40
2022-12-04T10:36:58.685Z,8.40
2022-12-04T10:39:30.474Z,8.60
2022-12-04T10:42:45.780Z,8.60
2022-12-04T10:45:12.805Z,8.70
2022-12-04T10:47:42.179Z,8.60
2022-12-04T10:50:19.434Z,8.60
2022-12-04T10:52:45.719Z,8.70
2022-12-04T10:55:12.567Z,8.70
2022-12-04T10:57:43.410Z,8.80
2022-12-04T11:00:30.442Z,8.80
2022-12-04T11:03:02.887Z,8.60
2022-12-04T11:06:06.767Z,8.60
2022-12-04T11:08:44.201Z,8.60
2022-12-04T11:11:14.469Z,8.40
2022-12-04T11:13:41.522Z,8.40
2022-12-04T11:16:33.482Z,8.40
2022-12-04T11:18:59.946Z,8.50
2022-12-04T11:21:30.357Z,8.50
2022-12-04T11:23:59.155Z,8.60
2022-12-04T11:26:36.552Z,8.60
2022-12-04T11:29:05.314Z,8.40
2022-12-04T11:31:32.345Z,8.50
2022-12-04T11:34:07.499Z,8.40
2022-12-04T11:36:39.912Z,8.30
2022-12-04T11:40:14.277Z,8.30
2022-12-04T11:42:41.939Z,8.20
2022-12-04T11:45:24.461Z,8.00
2022-12-04T11:47:59.174Z,7.90
2022-12-04T11:50:51.701Z,7.80
2022-12-04T11:55:15.412Z,7.80
2022-12-04T11:57:51.573Z,7.90
2022-12-04T12:00:23.758Z,7.70
2022-12-04T12:07:01.812Z,7.60
2022-12-04T12:10:54.752Z,7.50
2022-12-04T12:14:54.640Z,7.60
2022-12-04T12:17:40.636Z,7.40
2022-12-04T12:21:17.103Z,7.30
2022-12-04T12:24:26.233Z,7.20
2022-12-04T12:28:05.380Z,6.80
2022-12-04T12:31:06.422Z,6.70
2022-12-04T12:33:47.419Z,6.60
2022-12-04T12:36:13.810Z,6.60
2022-12-04T12:38:56.952Z,6.60
2022-12-04T12:41:35.564Z,6.60
2022-12-04T12:44:15.056Z,6.70
2022-12-04T12:46:48.325Z,6.70
2022-12-04T12:50:38.917Z,6.80
2022-12-04T12:53:10.594Z,6.70
2022-12-04T12:55:50.661Z,6.70
2022-12-04T12:58:48.249Z,6.60
2022-12-04T13:01:24.247Z,6.60
2022-12-04T13:05:25.927Z,6.60
2022-12-04T13:08:06.509Z,6.40
2022-12-04T13:10:39.977Z,6.40
2022-12-04T13:13:10.985Z,6.30
2022-12-04T13:15:57.544Z,6.20
2022-12-04T13:18:40.519Z,6.20
2022-12-04T13:21:06.775Z,6.00
2022-12-04T13:24:01.768Z,5.90
2022-12-04T13:26:47.724Z,5.80
2022-12-04T13:29:42.517Z,5.70
2022-12-04T13:33:54.867Z,5.60
2022-12-04T13:36:45.351Z,5.50
2022-12-04T13:39:37.675Z,5.40
2022-12-04T13:42:06.680Z,5.30
2022-12-04T13:44:33.855Z,5.20
2022-12-04T13:47:05.962Z,5.10
2022-12-04T13:49:37.336Z,5.10
2022-12-04T13:52:05.373Z,5.00
2022-12-04T13:54:36.117Z,4.90
2022-12-04T13:57:22.147Z,4.80
2022-12-04T13:59:49.029Z,4.70
2022-12-04T14:02:32.048Z,4.70
2022-12-04T14:05:03.384Z,4.60
2022-12-04T14:08:07.844Z,4.60
2022-12-04T14:10:36.259Z,4.50
2022-12-04T14:13:26.670Z,4.40
2022-12-04T14:16:05.128Z,4.40
2022-12-04T14:18:32.614Z,4.30
2022-12-04T14:21:05.047Z,4.20
2022-12-04T14:23:39.519Z,4.10
2022-12-04T14:26:18.455Z,4.10
2022-12-04T14:28:45.474Z,4.00
2022-12-04T14:31:56.151Z,5.20
2022-12-04T14:34:29.545Z,3.80
2022-12-04T14:36:56.226Z,3.70
2022-12-04T14:39:34.029Z,3.70
2022-12-04T14:42:14.430Z,3.60
2022-12-04T14:44:41.115Z,3.60
2022-12-04T14:48:12.995Z,3.50
2022-12-04T14:53:20.289Z,3.50
2022-12-04T14:59:05.445Z,3.40
2022-12-04T15:01:36.886Z,3.30
2022-12-04T15:04:47.225Z,3.30
2022-12-04T15:07:33.706Z,3.20
2022-12-04T15:10:20.003Z,3.20
2022-12-04T15:12:55.202Z,3.10
2022-12-04T15:15:27.092Z,3.10
2022-12-04T15:18:14.905Z,3.00
2022-12-04T15:21:41.727Z,2.90
2022-12-04T15:24:08.921Z,2.90
2022-12-04T15:26:35.439Z,2.80
2022-12-04T15:29:02.694Z,2.80
2022-12-04T15:31:38.675Z,2.80
2022-12-04T15:34:10.996Z,2.70
2022-12-04T15:36:51.337Z,2.70
2022-12-04T15:39:23.761Z,2.70
2022-12-04T15:41:50.037Z,2.60
2022-12-04T15:44:27.627Z,2.60
2022-12-04T15:46:55.364Z,2.50
2022-12-04T15:49:30.643Z,2.50
2022-12-04T15:54:36.073Z,2.50
2022-12-04T15:57:15.520Z,2.40
2022-12-04T15:59:50.205Z,2.40
2022-12-04T16:02:28.552Z,2.40
2022-12-04T16:04:54.801Z,2.30
2022-12-04T16:07:31.086Z,1.60
2022-12-04T16:10:04.139Z,2.30
2022-12-04T16:12:31.300Z,2.20
2022-12-04T16:15:00.427Z,2.20
2022-12-04T16:17:30.824Z,2.10
2022-12-04T16:20:00.535Z,2.00
2022-12-04T16:22:28.205Z,2.00
2022-12-04T16:24:56.722Z,2.00
2022-12-04T16:27:23.961Z,2.00
2022-12-04T16:29:52.523Z,2.00
2022-12-04T16:33:41.994Z,2.00
2022-12-04T16:36:10.884Z,1.90
2022-12-04T16:38:37.718Z,1.90
2022-12-04T16:41:18.899Z,1.90
2022-12-04T16:43:45.614Z,1.80
2022-12-04T16:46:13.764Z,1.80
2022-12-04T16:48:41.798Z,1.80
2022-12-04T16:51:20.403Z,1.70
2022-12-04T16:53:47.574Z,1.70
2022-12-04T16:56:14.377Z,1.80
2022-12-04T16:58:43.134Z,1.80
2022-12-04T17:01:22.695Z,1.70
2022-12-04T17:03:49.543Z,1.80
2022-12-04T17:06:16.344Z,1.70
2022-12-04T17:08:43.438Z,1.70
2022-12-04T17:11:14.015Z,1.70
2022-12-04T17:13:41.422Z,1.70
2022-12-04T17:16:09.160Z,1.70
2022-12-04T17:18:35.784Z,1.70
2022-12-04T17:21:09.927Z,1.60
2022-12-04T17:23:38.044Z,1.70
2022-12-04T17:26:06.330Z,1.60
2022-12-04T17:28:36.007Z,1.70
2022-12-04T17:31:06.156Z,1.60
2022-12-04T17:33:34.183Z,1.60
2022-12-04T17:36:04.532Z,1.60
2022-12-04T17:38:33.407Z,1.60
2022-12-04T17:41:02.927Z,1.60
2022-12-04T17:43:29.982Z,1.60
2022-12-04T17:45:59.870Z,1.60
2022-12-04T17:48:27.416Z,1.60
2022-12-04T17:51:20.800Z,1.50
2022-12-04T17:53:47.908Z,1.50
2022-12-04T17:56:16.943Z,1.60
2022-12-04T17:58:44.561Z,1.50
2022-12-04T18:01:14.050Z,1.60
2022-12-04T18:03:40.927Z,1.60
2022-12-04T18:06:18.501Z,1.60
2022-12-04T18:08:49.730Z,1.60
2022-12-04T18:11:23.928Z,1.60
2022-12-04T18:13:58.655Z,4.20
2022-12-04T18:16:27.282Z,1.70
2022-12-04T18:18:55.646Z,1.70
2022-12-04T18:21:22.401Z,1.60
2022-12-04T18:23:49.844Z,1.60
2022-12-04T18:26:23.127Z,1.70
2022-12-04T18:28:51.544Z,1.70
2022-12-04T18:31:19.255Z,1.70
2022-12-04T18:33:46.292Z,1.80
2022-12-04T18:36:21.483Z,1.80
2022-12-04T18:38:52.985Z,1.80
2022-12-04T18:41:19.341Z,1.90
2022-12-04T18:43:47.129Z,2.00
2022-12-04T18:46:15.407Z,2.00
2022-12-04T18:48:41.881Z,2.10
2022-12-04T18:52:09.097Z,2.10
2022-12-04T18:54:36.004Z,2.20
2022-12-04T18:57:03.182Z,2.20
2022-12-04T18:59:30.131Z,2.30
2022-12-04T19:01:58.210Z,2.30
2022-12-04T19:04:25.803Z,2.30
2022-12-04T19:06:55.140Z,2.30
2022-12-04T19:09:40.982Z,2.30
2022-12-04T19:12:30.246Z,2.30
2022-12-04T19:15:00.475Z,2.40
2022-12-04T19:17:27.147Z,2.40
2022-12-04T19:19:54.393Z,2.40
2022-12-04T19:22:22.010Z,2.40
2022-12-04T19:24:52.750Z,2.40
2022-12-04T19:27:20.325Z,2.40
2022-12-04T19:29:47.694Z,2.40
2022-12-04T19:32:15.484Z,2.40
2022-12-04T19:34:44.686Z,2.40
2022-12-04T19:37:11.462Z,2.40
2022-12-04T19:39:37.822Z,2.40
2022-12-04T19:42:04.905Z,2.40
2022-12-04T19:44:49.232Z,2.40
2022-12-04T19:47:17.222Z,2.40
2022-12-04T19:49:43.879Z,2.40
2022-12-04T19:52:12.566Z,2.40
2022-12-04T19:54:41.002Z,2.40
2022-12-04T19:57:08.678Z,2.40
2022-12-04T19:59:40.536Z,2.40
2022-12-04T20:02:12.532Z,2.40
2022-12-04T20:04:43.340Z,2.40
2022-12-04T20:07:11.020Z,2.40
2022-12-04T20:09:37.338Z,2.40
2022-12-04T20:12:05.357Z,2.40
2022-12-04T20:14:31.938Z,2.40
2022-12-04T20:16:58.983Z,2.40
2022-12-04T20:19:26.042Z,2.40
2022-12-04T20:21:59.095Z,2.40
2022-12-04T20:24:28.427Z,2.40
2022-12-04T20:26:56.231Z,2.40
2022-12-04T20:29:24.314Z,2.40
2022-12-04T20:31:53.620Z,2.40
2022-12-04T20:34:21.629Z,2.40
2022-12-04T20:36:50.109Z,2.40
2022-12-04T20:39:18.346Z,2.40
2022-12-04T20:41:46.300Z,2.40
2022-12-04T20:44:16.120Z,2.40
2022-12-04T20:46:43.356Z,2.50
2022-12-04T20:49:20.659Z,2.40
2022-12-04T20:51:49.096Z,2.50
2022-12-04T20:54:21.360Z,2.50
2022-12-04T20:56:53.007Z,2.50
2022-12-04T20:59:24.092Z,2.50
2022-12-04T21:01:51.131Z,2.50
2022-12-04T21:04:18.905Z,2.50
2022-12-04T21:06:46.855Z,2.50
2022-12-04T21:09:15.374Z,2.50
2022-12-04T21:11:46.734Z,2.50
2022-12-04T21:14:36.832Z,2.50
2022-12-04T21:17:11.726Z,2.20
2022-12-04T21:19:38.453Z,2.50
2022-12-04T21:22:06.372Z,2.50
2022-12-04T21:24:38.952Z,2.50
2022-12-04T21:27:20.958Z,2.50
2022-12-04T21:29:49.133Z,2.50
2022-12-04T21:32:15.564Z,2.50
2022-12-04T21:34:42.157Z,2.50
2022-12-04T21:37:11.602Z,2.50
2022-12-04T21:39:44.243Z,2.50
2022-12-04T21:42:33.091Z,2.50
2022-12-04T21:45:01.854Z,2.50
2022-12-04T21:47:30.599Z,2.50
2022-12-04T21:49:57.848Z,2.50
2022-12-04T21:52:26.898Z,2.50
2022-12-04T21:54:57.200Z,2.50
2022-12-04T21:57:27.223Z,2.50
2022-12-04T21:59:54.226Z,2.50
2022-12-04T22:02:25.215Z,2.50
2022-12-04T22:04:52.735Z,2.50
2022-12-04T22:07:25.011Z,2.50
2022-12-04T22:09:51.817Z,2.50
2022-12-04T22:12:47.990Z,2.50
2022-12-04T22:15:17.873Z,2.50
2022-12-04T22:17:45.572Z,2.50
2022-12-04T22:20:12.900Z,2.50
2022-12-04T22:22:40.152Z,2.50
2022-12-04T22:25:08.201Z,2.50
2022-12-04T22:27:36.291Z,2.50
2022-12-04T22:30:04.483Z,2.50
2022-12-04T22:32:31.609Z,2.50
2022-12-04T22:34:59.290Z,2.50
2022-12-04T22:37:27.243Z,2.50
2022-12-04T22:39:54.241Z,2.50
2022-12-04T22:42:20.612Z,2.40
2022-12-04T22:44:47.257Z,2.50
2022-12-04T22:47:13.693Z,2.50
2022-12-04T22:49:39.996Z,2.50
2022-12-04T22:52:06.764Z,2.50
2022-12-04T22:54:33.643Z,1.10
2022-12-04T22:57:00.636Z,2.50
2022-12-04T22:59:26.866Z,2.50
2022-12-04T23:01:53.523Z,2.50
2022-12-04T23:04:19.705Z,2.50
2022-12-04T23:06:47.608Z,2.50
2022-12-04T23:09:15.255Z,2.50
2022-12-04T23:11:42.014Z,2.50
2022-12-04T23:14:11.197Z,2.50
2022-12-04T23:16:38.929Z,2.50
2022-12-04T23:19:08.603Z,2.50
2022-12-04T23:21:36.017Z,2.50
2022-12-04T23:24:02.856Z,2.50
2022-12-04T23:26:37.904Z,2.50
2022-12-04T23:29:17.885Z,2.50
2022-12-04T23:31:56.814Z,2.50
2022-12-04T23:34:23.749Z,2.60
2022-12-04T23:36:49.946Z,2.50
2022-12-04T23:39:16.186Z,2.60
2022-12-04T23:41:42.326Z,2.50
2022-12-04T23:44:08.927Z,2.60
2022-12-04T23:46:35.101Z,2.60
2022-12-04T23:49:02.808Z,2.60
2022-12-04T23:51:28.972Z,2.60
2022-12-04T23:53:55.273Z,2.60
2022-12-04T23:56:26.152Z,2.60
2022-12-04T23:58:53.628Z,2.60
